createdAt,value
2022-12-11T00:01:57.573Z,75.88
2022-12-11T00:04:24.587Z,75.74
2022-12-11T00:06:51.157Z,75.63
2022-12-11T00:09:18.333Z,76.06
2022-12-11T00:11:44.890Z,76.25
2022-12-11T00:14:12.594Z,76.42
2022-12-11T00:16:39.483Z,76.54
2022-12-11T00:19:06.308Z,76.67
2022-12-11T00:21:33.135Z,75.70
2022-12-11T00:23:59.651Z,75.75
2022-12-11T00:26:26.912Z,76.01
2022-12-11T00:28:56.578Z,76.06
2022-12-11T00:31:23.772Z,75.79
2022-12-11T00:33:51.172Z,75.68
2022-12-11T00:36:22.850Z,75.63
2022-12-11T00:38:49.274Z,75.92
2022-12-11T00:41:16.721Z,76.15
2022-12-11T00:43:43.808Z,76.05
2022-12-11T00:46:10.779Z,76.26
2022-12-11T00:48:37.978Z,76.59
2022-12-11T00:51:04.792Z,76.27
2022-12-11T00:53:31.357Z,76.64
2022-12-11T00:55:57.858Z,76.94
2022-12-11T00:58:24.594Z,76.82
2022-12-11T01:00:53.202Z,76.81
2022-12-11T01:03:19.871Z,77.83
2022-12-11T01:05:54.382Z,76.65
2022-12-11T01:08:21.244Z,76.21
2022-12-11T01:10:47.836Z,75.84
2022-12-11T01:13:14.713Z,76.58
2022-12-11T01:15:45.040Z,76.92
2022-12-11T01:18:13.099Z,76.65
2022-12-11T01:20:41.085Z,76.80
2022-12-11T01:23:08.220Z,76.26
2022-12-11T01:25:38.081Z,76.93
2022-12-11T01:28:05.915Z,76.94
2022-12-11T01:30:33.226Z,76.25
2022-12-11T01:33:00.857Z,76.70
2022-12-11T01:35:28.015Z,76.89
2022-12-11T01:37:54.598Z,76.41
2022-12-11T01:40:21.706Z,76.90
2022-12-11T01:42:48.516Z,76.94
2022-12-11T01:45:41.908Z,77.60
2022-12-11T01:48:18.625Z,76.65
2022-12-11T01:50:50.277Z,76.66
2022-12-11T01:53:21.124Z,76.68
2022-12-11T01:55:49.822Z,76.26
2022-12-11T01:58:17.884Z,76.42
2022-12-11T02:00:44.463Z,76.89
2022-12-11T02:03:11.260Z,75.41
2022-12-11T02:05:38.347Z,75.77
2022-12-11T02:08:06.967Z,75.62
2022-12-11T02:10:56.116Z,76.09
2022-12-11T02:13:33.296Z,75.99
2022-12-11T02:16:08.712Z,76.47
2022-12-11T02:18:46.731Z,75.73
2022-12-11T02:21:28.282Z,75.97
2022-12-11T02:24:14.757Z,76.29
2022-12-11T02:27:09.080Z,76.18
2022-12-11T02:29:39.470Z,75.49
2022-12-11T02:32:16.604Z,76.25
2022-12-11T02:34:49.390Z,76.80
2022-12-11T02:37:21.561Z,76.42
2022-12-11T02:39:52.216Z,76.60
2022-12-11T02:42:20.341Z,76.97
2022-12-11T02:44:49.522Z,76.77
2022-12-11T02:47:19.210Z,76.03
2022-12-11T02:49:49.555Z,75.61
2022-12-11T02:52:21.754Z,76.20
2022-12-11T02:54:51.980Z,76.14
2022-12-11T02:57:27.711Z,76.40
2022-12-11T02:59:54.306Z,76.52
2022-12-11T03:02:21.113Z,76.26
2022-12-11T03:04:48.341Z,76.11
2022-12-11T03:07:24.971Z,76.11
2022-12-11T03:09:51.621Z,76.62
2022-12-11T03:12:31.216Z,76.35
2022-12-11T03:14:59.726Z,75.51
2022-12-11T03:17:52.390Z,75.74
2022-12-11T03:20:43.739Z,75.70
2022-12-11T03:23:22.873Z,75.71
2022-12-11T03:26:13.345Z,75.22
2022-12-11T03:28:44.421Z,75.41
2022-12-11T03:31:14.674Z,75.90
2022-12-11T03:33:46.125Z,76.08
2022-12-11T03:36:24.267Z,75.53
2022-12-11T03:38:55.907Z,76.91
2022-12-11T03:41:24.768Z,77.28
2022-12-11T03:43:54.282Z,77.22
2022-12-11T03:46:24.748Z,76.44
2022-12-11T03:48:53.573Z,76.50
2022-12-11T03:51:21.400Z,76.71
2022-12-11T03:53:48.452Z,76.67
2022-12-11T03:56:16.238Z,76.13
2022-12-11T03:58:42.906Z,75.55
2022-12-11T04:01:10.803Z,75.24
2022-12-11T04:03:38.323Z,75.26
2022-12-11T04:06:04.979Z,75.53
2022-12-11T04:08:31.493Z,75.33
2022-12-11T04:11:16.350Z,75.29
2022-12-11T04:13:42.927Z,75.36
2022-12-11T04:16:09.862Z,75.88
2022-12-11T04:18:55.377Z,76.00
2022-12-11T04:21:40.195Z,75.62
2022-12-11T04:24:16.587Z,76.07
2022-12-11T04:26:47.400Z,76.66
2022-12-11T04:29:14.957Z,76.25
2022-12-11T04:31:41.473Z,75.98
2022-12-11T04:34:08.149Z,75.69
2022-12-11T04:36:34.714Z,75.93
2022-12-11T04:39:01.402Z,76.23
2022-12-11T04:41:28.485Z,76.45
2022-12-11T04:43:54.970Z,76.59
2022-12-11T04:46:23.613Z,76.17
2022-12-11T04:48:57.070Z,76.29
2022-12-11T04:51:24.880Z,76.96
2022-12-11T04:53:51.534Z,76.71
2022-12-11T04:56:18.031Z,76.28
2022-12-11T04:58:45.180Z,76.58
2022-12-11T05:01:17.786Z,76.50
2022-12-11T05:03:44.988Z,75.52
2022-12-11T05:06:12.053Z,75.07
2022-12-11T05:08:40.620Z,74.95
2022-12-11T05:11:10.026Z,75.27
2022-12-11T05:13:37.443Z,75.37
2022-12-11T05:16:05.480Z,75.88
2022-12-11T05:18:32.029Z,75.34
2022-12-11T05:21:10.008Z,74.95
2022-12-11T05:23:37.513Z,75.48
2022-12-11T05:26:07.020Z,76.11
2022-12-11T05:28:36.382Z,75.96
2022-12-11T05:31:06.761Z,76.63
2022-12-11T05:33:34.288Z,76.69
2022-12-11T05:36:01.014Z,76.07
2022-12-11T05:38:27.526Z,75.80
2022-12-11T05:41:06.699Z,75.16
2022-12-11T05:43:36.054Z,74.78
2022-12-11T05:46:10.401Z,75.42
2022-12-11T05:48:38.312Z,75.65
2022-12-11T05:51:06.447Z,76.05
2022-12-11T05:53:33.165Z,76.20
2022-12-11T05:56:04.684Z,75.94
2022-12-11T05:58:31.779Z,76.32
2022-12-11T06:00:58.769Z,76.04
2022-12-11T06:03:25.475Z,75.88
2022-12-11T06:05:52.369Z,75.56
2022-12-11T06:08:19.068Z,75.15
2022-12-11T06:10:49.994Z,74.97
2022-12-11T06:13:16.988Z,75.15
2022-12-11T06:15:43.565Z,74.92
2022-12-11T06:18:10.633Z,75.09
2022-12-11T06:20:37.402Z,75.68
2022-12-11T06:23:04.036Z,75.20
2022-12-11T06:25:31.330Z,75.30
2022-12-11T06:27:57.956Z,75.08
2022-12-11T06:30:38.909Z,75.07
2022-12-11T06:33:07.020Z,75.12
2022-12-11T06:35:38.773Z,75.55
2022-12-11T06:38:08.101Z,75.30
2022-12-11T06:40:34.600Z,74.59
2022-12-11T06:43:01.182Z,75.14
2022-12-11T06:45:27.785Z,75.43
2022-12-11T06:47:54.318Z,76.02
2022-12-11T06:50:20.818Z,75.29
2022-12-11T06:52:47.306Z,74.82
2022-12-11T06:55:14.093Z,74.64
2022-12-11T06:57:40.725Z,74.88
2022-12-11T07:00:07.640Z,75.23
2022-12-11T07:02:34.296Z,75.51
2022-12-11T07:05:00.844Z,75.86
2022-12-11T07:07:27.361Z,76.08
2022-12-11T07:09:53.876Z,75.57
2022-12-11T07:12:20.387Z,75.26
2022-12-11T07:14:46.947Z,75.10
2022-12-11T07:17:13.605Z,75.27
2022-12-11T07:19:40.730Z,74.60
2022-12-11T07:22:07.282Z,74.21
2022-12-11T07:24:33.879Z,74.64
2022-12-11T07:27:00.450Z,75.17
2022-12-11T07:29:27.038Z,74.58
2022-12-11T07:31:53.625Z,75.06
2022-12-11T07:34:20.298Z,74.43
2022-12-11T07:36:46.859Z,73.26
2022-12-11T07:39:13.769Z,73.15
2022-12-11T07:41:40.441Z,73.38
2022-12-11T07:44:10.559Z,74.10
2022-12-11T07:46:38.042Z,74.10
2022-12-11T07:49:06.046Z,73.05
2022-12-11T07:51:37.733Z,72.54
2022-12-11T07:54:07.643Z,72.53
2022-12-11T07:56:34.640Z,71.85
2022-12-11T07:59:05.549Z,72.56
2022-12-11T08:01:35.612Z,73.58
2022-12-11T08:04:04.278Z,72.77
2022-12-11T08:06:33.212Z,71.02
2022-12-11T08:09:01.487Z,70.57
2022-12-11T08:11:28.691Z,70.67
2022-12-11T08:13:56.029Z,69.34
2022-12-11T08:16:23.059Z,69.85
2022-12-11T08:18:49.804Z,69.22
2022-12-11T08:21:25.374Z,69.90
2022-12-11T08:23:53.250Z,69.59
2022-12-11T08:26:29.712Z,69.42
2022-12-11T08:28:57.057Z,68.82
2022-12-11T08:31:24.703Z,69.19
2022-12-11T08:33:51.926Z,69.75
2022-12-11T08:36:22.982Z,68.68
2022-12-11T08:38:50.054Z,67.19
2022-12-11T08:41:28.332Z,67.81
2022-12-11T08:43:56.059Z,67.22
2022-12-11T08:46:25.664Z,67.56
2022-12-11T08:48:52.683Z,67.61
2022-12-11T08:51:22.306Z,65.11
2022-12-11T08:53:49.652Z,65.58
2022-12-11T08:56:18.687Z,65.88
2022-12-11T08:58:46.444Z,66.90
2022-12-11T09:01:22.090Z,67.87
2022-12-11T09:03:49.238Z,68.13
2022-12-11T09:06:19.243Z,68.32
2022-12-11T09:08:52.281Z,68.19
2022-12-11T09:11:22.397Z,67.49
2022-12-11T09:13:49.176Z,68.45
2022-12-11T09:16:18.446Z,68.31
2022-12-11T09:18:47.337Z,68.40
2022-12-11T09:21:17.834Z,68.12
2022-12-11T09:23:44.843Z,67.87
2022-12-11T09:26:13.547Z,67.57
2022-12-11T09:28:45.699Z,67.49
2022-12-11T09:31:15.865Z,67.28
2022-12-11T09:33:42.650Z,67.07
2022-12-11T09:36:09.510Z,67.48
2022-12-11T09:38:36.560Z,67.38
2022-12-11T09:41:26.589Z,67.32
2022-12-11T09:44:07.950Z,67.32
2022-12-11T09:46:36.432Z,67.38
2022-12-11T09:49:05.191Z,66.51
2022-12-11T09:51:39.879Z,67.16
2022-12-11T09:54:06.631Z,66.92
2022-12-11T09:56:39.988Z,67.29
2022-12-11T09:59:36.894Z,67.38
2022-12-11T10:02:14.711Z,67.24
2022-12-11T10:05:19.145Z,66.09
2022-12-11T10:08:00.657Z,65.86
2022-12-11T10:10:38.651Z,66.07
2022-12-11T10:13:32.735Z,66.13
2022-12-11T10:16:25.969Z,66.47
2022-12-11T10:18:53.317Z,66.30
2022-12-11T10:21:20.516Z,66.23
2022-12-11T10:23:56.605Z,64.77
2022-12-11T10:26:23.585Z,65.00
2022-12-11T10:28:50.508Z,64.16
2022-12-11T10:31:32.138Z,63.89
2022-12-11T10:34:12.137Z,63.53
2022-12-11T10:36:41.909Z,64.60
2022-12-11T10:39:22.714Z,64.57
2022-12-11T10:41:52.105Z,64.79
2022-12-11T10:44:30.487Z,63.42
2022-12-11T10:47:18.463Z,63.67
2022-12-11T10:49:58.260Z,63.67
2022-12-11T10:52:32.034Z,61.90
2022-12-11T10:55:02.499Z,61.96
2022-12-11T10:57:32.732Z,62.48
2022-12-11T10:59:59.918Z,61.25
2022-12-11T11:02:31.231Z,60.30
2022-12-11T11:05:00.207Z,60.19
2022-12-11T11:07:29.773Z,60.53
2022-12-11T11:10:11.240Z,61.40
2022-12-11T11:12:41.388Z,61.31
2022-12-11T11:15:16.312Z,58.57
2022-12-11T11:17:55.489Z,59.03
2022-12-11T11:20:26.325Z,58.08
2022-12-11T11:22:59.858Z,55.68
2022-12-11T11:25:29.087Z,54.68
2022-12-11T11:27:57.360Z,56.57
2022-12-11T11:30:30.785Z,57.95
2022-12-11T11:33:02.182Z,57.16
2022-12-11T11:35:31.129Z,56.96
2022-12-11T11:38:14.519Z,57.77
2022-12-11T11:41:04.878Z,57.56
2022-12-11T11:43:46.405Z,56.37
2022-12-11T11:46:22.055Z,55.79
2022-12-11T11:48:48.569Z,53.85
2022-12-11T11:51:33.611Z,56.70
2022-12-11T11:54:03.527Z,57.90
2022-12-11T11:56:39.558Z,58.05
2022-12-11T11:59:31.938Z,57.99
2022-12-11T12:01:58.761Z,58.69
2022-12-11T12:04:31.677Z,59.92
2022-12-11T12:07:28.505Z,60.01
2022-12-11T12:10:30.365Z,59.46
2022-12-11T12:13:49.236Z,60.22
2022-12-11T12:16:52.161Z,60.01
2022-12-11T12:19:35.148Z,59.14
2022-12-11T12:22:24.682Z,59.23
2022-12-11T12:25:32.939Z,57.46
2022-12-11T12:28:04.562Z,55.19
2022-12-11T12:30:45.149Z,56.17
2022-12-11T12:33:39.778Z,57.91
2022-12-11T12:36:14.376Z,59.03
2022-12-11T12:38:53.392Z,58.57
2022-12-11T12:41:35.086Z,58.82
2022-12-11T12:44:22.329Z,58.49
2022-12-11T12:46:57.251Z,57.32
2022-12-11T12:49:48.257Z,58.56
2022-12-11T12:52:22.029Z,59.18
2022-12-11T12:55:11.670Z,59.26
2022-12-11T12:57:44.894Z,59.27
2022-12-11T13:00:13.472Z,58.40
2022-12-11T13:02:51.015Z,58.48
2022-12-11T13:05:26.526Z,59.02
2022-12-11T13:08:02.474Z,59.29
2022-12-11T13:10:34.741Z,59.19
2022-12-11T13:13:03.658Z,58.10
2022-12-11T13:15:45.601Z,57.76
2022-12-11T13:18:32.390Z,57.29
2022-12-11T13:20:59.218Z,58.30
2022-12-11T13:23:34.286Z,58.27
2022-12-11T13:26:04.449Z,57.76
2022-12-11T13:28:45.624Z,57.35
2022-12-11T13:31:15.240Z,57.71
2022-12-11T13:33:48.971Z,58.52
2022-12-11T13:36:24.562Z,58.57
2022-12-11T13:39:18.129Z,60.89
2022-12-11T13:41:50.363Z,61.74
2022-12-11T13:44:26.004Z,61.99
2022-12-11T13:46:56.609Z,62.45
2022-12-11T13:49:26.524Z,62.76
2022-12-11T13:51:58.496Z,62.19
2022-12-11T13:54:26.711Z,62.93
2022-12-11T13:57:06.744Z,64.30
2022-12-11T13:59:41.210Z,65.08
2022-12-11T14:02:34.130Z,64.82
2022-12-11T14:05:03.456Z,65.49
2022-12-11T14:07:33.677Z,65.47
2022-12-11T14:10:09.368Z,65.23
2022-12-11T14:12:37.060Z,65.59
2022-12-11T14:15:04.796Z,65.28
2022-12-11T14:17:34.011Z,65.19
2022-12-11T14:20:07.147Z,65.54
2022-12-11T14:22:34.171Z,65.31
2022-12-11T14:25:05.352Z,66.26
2022-12-11T14:27:31.895Z,65.46
2022-12-11T14:29:58.460Z,64.87
2022-12-11T14:32:31.040Z,65.69
2022-12-11T14:34:58.852Z,64.96
2022-12-11T14:37:26.632Z,64.54
2022-12-11T14:39:59.829Z,65.66
2022-12-11T14:42:33.899Z,65.32
2022-12-11T14:45:09.362Z,65.61
2022-12-11T14:47:42.827Z,66.03
2022-12-11T14:50:27.090Z,66.76
2022-12-11T14:52:58.902Z,67.37
2022-12-11T14:55:27.227Z,66.65
2022-12-11T14:57:59.065Z,67.90
2022-12-11T15:00:35.900Z,67.38
2022-12-11T15:03:06.847Z,66.90
2022-12-11T15:05:40.259Z,67.35
2022-12-11T15:08:10.117Z,66.60
2022-12-11T15:10:42.315Z,65.96
2022-12-11T15:13:10.171Z,66.91
2022-12-11T15:15:47.527Z,67.25
2022-12-11T15:18:40.571Z,67.19
2022-12-11T15:21:11.750Z,66.65
2022-12-11T15:23:56.902Z,67.35
2022-12-11T15:26:38.709Z,66.77
2022-12-11T15:29:23.302Z,67.93
2022-12-11T15:32:02.077Z,67.19
2022-12-11T15:34:33.703Z,66.77
2022-12-11T15:37:00.322Z,67.13
2022-12-11T15:39:26.953Z,67.00
2022-12-11T15:41:53.466Z,67.98
2022-12-11T15:44:22.435Z,70.09
2022-12-11T15:46:49.363Z,69.93
2022-12-11T15:49:15.899Z,69.30
2022-12-11T15:51:43.311Z,69.39
2022-12-11T15:54:10.238Z,69.60
2022-12-11T15:56:36.750Z,69.94
2022-12-11T15:59:06.714Z,69.73
2022-12-11T16:01:33.651Z,69.63
2022-12-11T16:04:04.651Z,69.72
2022-12-11T16:06:32.016Z,69.71
2022-12-11T16:08:58.554Z,70.11
2022-12-11T16:11:25.095Z,70.40
2022-12-11T16:13:51.608Z,70.92
2022-12-11T16:16:18.375Z,72.47
2022-12-11T16:18:45.770Z,72.46
2022-12-11T16:21:15.639Z,72.60
2022-12-11T16:23:46.340Z,71.43
2022-12-11T16:26:14.165Z,71.88
2022-12-11T16:28:40.991Z,72.17
2022-12-11T16:31:13.055Z,72.67
2022-12-11T16:33:39.788Z,72.73
2022-12-11T16:36:15.481Z,72.96
2022-12-11T16:38:51.451Z,73.03
2022-12-11T16:41:22.790Z,73.90
2022-12-11T16:43:49.590Z,73.28
2022-12-11T16:46:23.434Z,72.78
2022-12-11T16:48:50.246Z,72.39
2022-12-11T16:51:17.166Z,72.55
2022-12-11T16:53:43.967Z,72.69
2022-12-11T16:56:10.716Z,72.92
2022-12-11T16:58:37.195Z,72.63
2022-12-11T17:01:12.872Z,72.43
2022-12-11T17:03:40.789Z,73.53
2022-12-11T17:06:14.994Z,73.49
2022-12-11T17:08:42.811Z,73.27
2022-12-11T17:11:13.698Z,73.05
2022-12-11T17:13:40.528Z,72.88
2022-12-11T17:16:08.815Z,73.13
2022-12-11T17:18:35.722Z,73.10
2022-12-11T17:21:13.459Z,73.07
2022-12-11T17:23:40.200Z,73.39
2022-12-11T17:26:11.697Z,73.04
2022-12-11T17:28:39.082Z,73.92
2022-12-11T17:31:12.799Z,73.91
2022-12-11T17:33:39.673Z,73.63
2022-12-11T17:36:07.390Z,73.06
2022-12-11T17:38:34.167Z,72.96
2022-12-11T17:41:00.757Z,73.05
2022-12-11T17:43:27.293Z,72.97
2022-12-11T17:45:55.137Z,73.49
2022-12-11T17:48:24.438Z,73.86
2022-12-11T17:50:52.577Z,72.88
2022-12-11T17:53:20.855Z,72.50
2022-12-11T17:55:47.966Z,72.75
2022-12-11T17:58:21.667Z,72.67
2022-12-11T18:00:51.895Z,72.95
2022-12-11T18:03:18.840Z,72.28
2022-12-11T18:05:48.665Z,71.90
2022-12-11T18:08:18.465Z,72.63
2022-12-11T18:10:45.733Z,73.11
2022-12-11T18:13:12.747Z,73.49
2022-12-11T18:15:41.907Z,73.50
2022-12-11T18:18:09.148Z,73.53
2022-12-11T18:20:37.371Z,73.64
2022-12-11T18:23:04.701Z,73.74
2022-12-11T18:25:32.560Z,72.43
2022-12-11T18:28:00.507Z,71.83
2022-12-11T18:30:27.942Z,72.39
2022-12-11T18:32:54.692Z,72.65
2022-12-11T18:35:21.778Z,72.87
2022-12-11T18:37:48.848Z,72.71
2022-12-11T18:40:17.430Z,72.30
2022-12-11T18:42:44.794Z,72.80
2022-12-11T18:45:11.633Z,72.86
2022-12-11T18:47:38.400Z,73.15
2022-12-11T18:50:08.273Z,73.17
2022-12-11T18:52:35.104Z,73.33
2022-12-11T18:55:02.522Z,74.31
2022-12-11T18:57:30.016Z,74.50
2022-12-11T18:59:59.752Z,74.61
2022-12-11T19:02:26.334Z,74.57
2022-12-11T19:04:53.007Z,74.42
2022-12-11T19:07:19.875Z,74.47
2022-12-11T19:09:48.441Z,74.02
2022-12-11T19:12:15.241Z,73.59
2022-12-11T19:14:41.837Z,73.96
2022-12-11T19:17:08.399Z,73.98
2022-12-11T19:19:36.044Z,73.65
2022-12-11T19:22:03.466Z,72.61
2022-12-11T19:24:30.635Z,72.42
2022-12-11T19:26:57.616Z,72.83
2022-12-11T19:29:28.093Z,72.70
2022-12-11T19:31:55.610Z,73.22
2022-12-11T19:34:23.297Z,72.63
2022-12-11T19:36:49.888Z,71.83
2022-12-11T19:39:17.853Z,72.18
2022-12-11T19:41:46.686Z,72.46
2022-12-11T19:44:13.283Z,73.00
2022-12-11T19:46:40.178Z,73.41
2022-12-11T19:49:06.892Z,73.71
2022-12-11T19:51:38.714Z,74.22
2022-12-11T19:54:07.408Z,73.52
2022-12-11T19:56:35.048Z,72.98
2022-12-11T19:59:03.592Z,72.77
2022-12-11T20:01:32.206Z,73.13
2022-12-11T20:04:01.642Z,72.44
2022-12-11T20:06:33.835Z,72.27
2022-12-11T20:09:01.440Z,72.18
2022-12-11T20:11:28.503Z,72.77
2022-12-11T20:13:55.969Z,73.83
2022-12-11T20:16:39.658Z,73.47
2022-12-11T20:19:11.098Z,72.68
2022-12-11T20:21:40.547Z,73.50
2022-12-11T20:24:07.616Z,73.44
2022-12-11T20:26:36.427Z,73.86
2022-12-11T20:29:08.477Z,73.41
2022-12-11T20:31:37.031Z,72.58
2022-12-11T20:34:05.267Z,73.03
2022-12-11T20:36:32.341Z,73.25
2022-12-11T20:38:59.169Z,74.08
2022-12-11T20:41:26.726Z,74.42
2022-12-11T20:43:54.138Z,72.54
2022-12-11T20:46:29.121Z,71.97
2022-12-11T20:48:58.563Z,73.34
2022-12-11T20:51:26.616Z,73.55
2022-12-11T20:54:01.120Z,73.71
2022-12-11T20:56:30.106Z,73.34
2022-12-11T20:58:58.418Z,72.39
2022-12-11T21:01:30.890Z,73.16
2022-12-11T21:03:58.081Z,73.57
2022-12-11T21:06:30.853Z,73.20
2022-12-11T21:08:59.630Z,73.77
2022-12-11T21:11:26.311Z,74.38
2022-12-11T21:13:52.870Z,73.40
2022-12-11T21:16:20.535Z,73.76
2022-12-11T21:18:48.152Z,73.48
2022-12-11T21:21:23.800Z,72.54
2022-12-11T21:23:50.984Z,72.48
2022-12-11T21:26:17.940Z,72.66
2022-12-11T21:28:44.691Z,71.62
2022-12-11T21:31:16.062Z,71.95
2022-12-11T21:33:42.692Z,72.83
2022-12-11T21:36:11.047Z,73.35
2022-12-11T21:38:38.524Z,73.23
2022-12-11T21:41:26.193Z,73.81
2022-12-11T21:46:41.334Z,73.06
2022-12-11T21:49:10.773Z,73.39
2022-12-11T21:51:42.691Z,73.24
2022-12-11T21:54:16.894Z,73.54
2022-12-11T21:56:44.613Z,73.42
2022-12-11T21:59:11.388Z,73.51
2022-12-11T22:01:42.197Z,73.87
2022-12-11T22:04:10.589Z,74.53
2022-12-11T22:06:37.335Z,73.83
2022-12-11T22:09:05.410Z,72.77
2022-12-11T22:11:34.776Z,71.02
2022-12-11T22:14:04.600Z,71.04
2022-12-11T22:16:31.495Z,70.86
2022-12-11T22:18:58.120Z,71.46
2022-12-11T22:21:25.321Z,71.78
2022-12-11T22:23:52.943Z,72.60
2022-12-11T22:26:23.190Z,71.82
2022-12-11T22:28:50.130Z,72.01
2022-12-11T22:31:20.382Z,72.93
2022-12-11T22:33:49.730Z,73.60
2022-12-11T22:36:18.630Z,73.97
2022-12-11T22:38:45.726Z,73.45
2022-12-11T22:41:22.792Z,70.21
2022-12-11T22:43:49.514Z,68.76
2022-12-11T22:46:18.253Z,69.70
2022-12-11T22:48:44.803Z,71.40
2022-12-11T22:51:11.686Z,72.66
2022-12-11T22:53:38.276Z,73.68
2022-12-11T22:56:09.257Z,72.20
2022-12-11T22:58:35.800Z,70.37
2022-12-11T23:01:03.529Z,69.50
2022-12-11T23:03:30.099Z,70.64
2022-12-11T23:06:00.760Z,71.78
2022-12-11T23:08:30.552Z,72.41
2022-12-11T23:10:57.283Z,73.03
2022-12-11T23:13:23.771Z,72.86
2022-12-11T23:15:50.334Z,72.71
2022-12-11T23:18:16.805Z,72.83
2022-12-11T23:20:44.946Z,73.17
2022-12-11T23:23:11.424Z,73.45
2022-12-11T23:25:38.001Z,73.49
2022-12-11T23:28:04.690Z,72.64
2022-12-11T23:30:31.296Z,72.44
2022-12-11T23:32:57.868Z,72.96
2022-12-11T23:35:24.428Z,73.01
2022-12-11T23:37:51.030Z,72.05
2022-12-11T23:40:17.556Z,71.93
2022-12-11T23:42:44.040Z,72.27
2022-12-11T23:45:10.892Z,72.39
2022-12-11T23:47:37.787Z,72.98
2022-12-11T23:50:04.650Z,73.23
2022-12-11T23:52:31.197Z,72.64
2022-12-11T23:54:57.798Z,72.44
2022-12-11T23:57:24.360Z,73.04
2022-12-11T23:59:51.087Z,73.04
